createdAt,value
2023-01-21T00:01:36.444Z,6.57
2023-01-21T00:06:38.983Z,4.20
2023-01-21T00:11:41.500Z,6.20
2023-01-21T00:16:44.177Z,6.33
2023-01-21T00:21:46.720Z,4.80
2023-01-21T00:26:49.156Z,4.53
2023-01-21T00:31:51.784Z,7.37
2023-01-21T00:36:56.539Z,4.90
2023-01-21T00:41:59.089Z,5.67
2023-01-21T00:47:01.843Z,4.70
2023-01-21T00:52:04.646Z,6.13
2023-01-21T00:57:07.063Z,6.40
2023-01-21T01:02:09.961Z,4.43
2023-01-21T01:07:12.460Z,6.43
2023-01-21T01:12:14.809Z,5.87
2023-01-21T01:17:17.237Z,6.07
2023-01-21T01:22:19.762Z,6.80
2023-01-21T01:27:22.531Z,7.50
2023-01-21T01:32:24.997Z,5.67
2023-01-21T01:37:27.449Z,6.07
2023-01-21T01:42:30.057Z,6.53
2023-01-21T01:47:42.510Z,5.33
2023-01-21T01:52:46.048Z,5.80
2023-01-21T01:57:52.865Z,6.37
2023-01-21T02:03:15.162Z,5.33
2023-01-21T02:08:18.538Z,7.07
2023-01-21T02:13:21.125Z,5.67
2023-01-21T02:18:38.948Z,6.30
2023-01-21T02:24:07.065Z,5.07
2023-01-21T02:29:42.680Z,8.00
2023-01-21T02:35:20.448Z,5.00
2023-01-21T02:40:37.029Z,5.40
2023-01-21T02:45:46.880Z,5.97
2023-01-21T02:50:52.080Z,5.70
2023-01-21T02:55:57.598Z,5.73
2023-01-21T03:01:30.987Z,10.03
2023-01-21T03:06:52.622Z,5.90
2023-01-21T03:12:03.542Z,8.20
2023-01-21T03:17:28.849Z,4.27
2023-01-21T03:22:35.494Z,5.77
2023-01-21T03:27:42.736Z,4.83
2023-01-21T03:32:49.852Z,5.43
2023-01-21T03:38:09.107Z,5.97
2023-01-21T03:43:11.801Z,5.33
2023-01-21T03:48:36.957Z,6.50
2023-01-21T03:53:39.358Z,6.63
2023-01-21T03:58:41.806Z,5.33
2023-01-21T04:03:44.727Z,4.37
2023-01-21T04:08:47.494Z,5.23
2023-01-21T04:13:49.960Z,6.43
2023-01-21T04:18:52.847Z,4.40
2023-01-21T04:23:55.360Z,4.77
2023-01-21T04:28:58.424Z,4.73
2023-01-21T04:34:01.117Z,4.73
2023-01-21T04:39:03.846Z,5.50
2023-01-21T04:44:06.372Z,5.13
2023-01-21T04:49:09.041Z,6.03
2023-01-21T04:54:11.619Z,4.10
2023-01-21T04:59:14.204Z,5.47
2023-01-21T05:04:16.971Z,4.83
2023-01-21T05:09:19.657Z,4.17
2023-01-21T05:14:22.093Z,5.10
2023-01-21T05:19:24.624Z,5.50
2023-01-21T05:24:27.260Z,4.73
2023-01-21T05:29:29.649Z,4.73
2023-01-21T05:34:32.452Z,4.87
2023-01-21T05:39:34.891Z,5.73
2023-01-21T05:44:37.325Z,6.30
2023-01-21T05:49:40.035Z,5.07
2023-01-21T05:54:56.093Z,4.30
2023-01-21T06:00:04.737Z,4.53
2023-01-21T06:05:07.728Z,4.87
2023-01-21T06:10:10.551Z,6.20
2023-01-21T06:15:14.045Z,6.67
2023-01-21T06:20:16.806Z,8.97
2023-01-21T06:25:19.442Z,8.03
2023-01-21T06:30:22.882Z,9.33
2023-01-21T06:35:25.388Z,8.80
2023-01-21T06:40:27.818Z,10.43
2023-01-21T06:45:30.352Z,12.50
2023-01-21T06:50:32.971Z,12.20
2023-01-21T06:55:35.387Z,10.60
2023-01-21T07:00:38.008Z,13.07
2023-01-21T07:05:40.610Z,9.40
2023-01-21T07:10:43.292Z,11.57
2023-01-21T07:15:45.928Z,12.00
2023-01-21T07:20:48.312Z,9.80
2023-01-21T07:25:51.021Z,10.97
2023-01-21T07:30:53.719Z,12.70
2023-01-21T07:35:56.463Z,12.13
2023-01-21T07:40:59.093Z,9.93
2023-01-21T07:46:01.990Z,13.47
2023-01-21T07:51:07.511Z,14.90
2023-01-21T07:56:10.323Z,15.43
2023-01-21T08:01:12.842Z,13.57
2023-01-21T08:06:16.559Z,12.70
2023-01-21T08:11:19.402Z,12.80
2023-01-21T08:16:21.892Z,13.53
2023-01-21T08:21:24.338Z,13.30
2023-01-21T08:26:27.001Z,11.30
2023-01-21T08:31:29.439Z,13.10
2023-01-21T08:36:32.135Z,14.67
2023-01-21T08:41:35.113Z,13.03
2023-01-21T08:46:37.544Z,13.53
2023-01-21T08:51:39.960Z,13.63
2023-01-21T08:56:42.362Z,13.67
2023-01-21T09:01:44.812Z,12.87
2023-01-21T09:06:47.240Z,12.00
2023-01-21T09:11:49.678Z,16.43
2023-01-21T09:16:52.191Z,13.97
2023-01-21T09:21:55.656Z,11.23
2023-01-21T09:26:58.079Z,10.70
2023-01-21T09:32:00.828Z,15.47
2023-01-21T09:37:05.217Z,13.03
2023-01-21T09:42:21.201Z,10.50
2023-01-21T09:47:32.306Z,14.73
2023-01-21T09:52:40.253Z,11.93
2023-01-21T09:57:48.909Z,11.10
2023-01-21T10:03:08.931Z,14.10
2023-01-21T10:08:37.012Z,15.43
2023-01-21T10:14:19.250Z,14.33
2023-01-21T10:19:33.435Z,10.17
2023-01-21T10:24:49.791Z,11.97
2023-01-21T10:30:20.483Z,13.70
2023-01-21T10:36:07.032Z,9.83
2023-01-21T10:41:27.662Z,9.13
2023-01-21T10:46:57.257Z,10.93
2023-01-21T10:52:18.825Z,10.77
2023-01-21T10:57:27.211Z,12.83
2023-01-21T11:02:34.276Z,13.13
2023-01-21T11:07:42.236Z,10.00
2023-01-21T11:12:44.681Z,11.93
2023-01-21T11:17:50.089Z,12.20
2023-01-21T11:22:52.844Z,12.80
2023-01-21T11:27:55.535Z,11.40
2023-01-21T11:33:19.510Z,12.57
2023-01-21T11:38:34.490Z,11.47
2023-01-21T11:43:48.828Z,9.60
2023-01-21T11:49:06.494Z,8.43
2023-01-21T11:54:22.038Z,11.97
2023-01-21T11:59:45.728Z,10.07
2023-01-21T12:05:16.324Z,8.40
2023-01-21T12:10:37.113Z,8.07
2023-01-21T12:15:57.093Z,10.27
2023-01-21T12:21:10.043Z,9.20
2023-01-21T12:26:42.494Z,9.80
2023-01-21T12:31:54.477Z,9.80
2023-01-21T12:37:16.129Z,9.60
2023-01-21T12:42:29.483Z,10.67
2023-01-21T12:47:39.960Z,8.70
2023-01-21T12:53:04.074Z,9.63
2023-01-21T12:58:19.496Z,11.10
2023-01-21T13:03:33.114Z,10.73
2023-01-21T13:09:01.099Z,8.50
2023-01-21T13:14:09.700Z,10.40
2023-01-21T13:19:16.362Z,10.87
2023-01-21T13:24:34.273Z,12.67
2023-01-21T13:29:45.500Z,11.10
2023-01-21T13:35:23.184Z,12.47
2023-01-21T13:41:00.619Z,9.10
2023-01-21T13:46:21.826Z,12.60
2023-01-21T13:51:42.295Z,9.47
2023-01-21T13:57:13.640Z,8.87
2023-01-21T14:02:49.368Z,8.47
2023-01-21T14:08:08.409Z,10.13
2023-01-21T14:13:35.486Z,9.13
2023-01-21T14:19:04.637Z,9.50
2023-01-21T14:24:36.993Z,10.93
2023-01-21T14:30:06.128Z,9.00
2023-01-21T14:35:27.638Z,11.57
2023-01-21T14:40:32.432Z,8.73
2023-01-21T14:46:22.454Z,7.10
2023-01-21T14:51:27.224Z,8.10
2023-01-21T14:56:36.708Z,9.20
2023-01-21T15:01:45.987Z,8.27
2023-01-21T15:06:53.223Z,8.43
2023-01-21T15:12:07.096Z,8.20
2023-01-21T15:17:47.240Z,9.73
2023-01-21T15:23:24.150Z,9.47
2023-01-21T15:28:39.979Z,8.73
2023-01-21T15:33:48.865Z,7.83
2023-01-21T15:39:00.683Z,9.07
2023-01-21T15:44:32.721Z,9.67
2023-01-21T15:49:57.059Z,7.87
2023-01-21T15:55:27.069Z,7.70
2023-01-21T16:00:44.833Z,6.20
2023-01-21T16:06:11.456Z,6.47
2023-01-21T16:11:28.430Z,7.13
2023-01-21T16:17:18.242Z,7.40
2023-01-21T16:22:28.130Z,7.40
2023-01-21T16:27:32.444Z,7.37
2023-01-21T16:32:37.140Z,7.07
2023-01-21T16:37:39.652Z,9.60
2023-01-21T16:42:42.705Z,6.07
2023-01-21T16:47:52.582Z,8.07
2023-01-21T16:52:57.585Z,7.73
2023-01-21T16:58:00.534Z,5.67
2023-01-21T17:03:04.846Z,7.33
2023-01-21T17:08:12.169Z,6.47
2023-01-21T17:13:16.166Z,7.07
2023-01-21T17:18:23.092Z,5.43
2023-01-21T17:23:31.391Z,7.60
2023-01-21T17:28:47.506Z,6.93
2023-01-21T17:34:27.447Z,5.40
2023-01-21T17:39:48.390Z,7.20
2023-01-21T17:44:54.745Z,6.43
2023-01-21T17:50:17.483Z,9.23
2023-01-21T17:55:20.087Z,6.93
2023-01-21T18:00:43.273Z,8.00
2023-01-21T18:05:46.276Z,5.33
2023-01-21T18:10:48.787Z,6.93
2023-01-21T18:15:51.995Z,7.80
2023-01-21T18:20:54.829Z,6.67
2023-01-21T18:25:59.670Z,6.23
2023-01-21T18:31:02.776Z,13.83
2023-01-21T18:36:05.744Z,8.37
2023-01-21T18:41:11.689Z,6.63
2023-01-21T18:46:16.307Z,7.23
2023-01-21T18:51:18.882Z,8.37
2023-01-21T18:56:21.810Z,9.77
2023-01-21T19:01:24.433Z,8.70
2023-01-21T19:06:27.095Z,8.40
2023-01-21T19:11:29.538Z,8.27
2023-01-21T19:16:32.107Z,11.60
2023-01-21T19:21:34.967Z,8.87
2023-01-21T19:26:38.371Z,9.60
2023-01-21T19:31:40.921Z,11.30
2023-01-21T19:36:43.501Z,10.33
2023-01-21T19:41:45.916Z,11.90
2023-01-21T19:46:48.580Z,11.10
2023-01-21T19:51:51.052Z,12.67
2023-01-21T19:56:53.768Z,11.23
2023-01-21T20:01:56.497Z,10.77
2023-01-21T20:06:59.122Z,7.67
2023-01-21T20:12:03.514Z,10.63
2023-01-21T20:17:12.864Z,10.63
2023-01-21T20:22:15.326Z,9.80
2023-01-21T20:27:17.905Z,7.93
2023-01-21T20:32:20.896Z,8.90
2023-01-21T20:37:23.372Z,8.53
2023-01-21T20:42:27.341Z,11.47
2023-01-21T20:47:38.575Z,10.10
2023-01-21T20:52:46.620Z,8.17
2023-01-21T20:57:49.014Z,12.40
2023-01-21T21:02:51.575Z,8.97
2023-01-21T21:07:55.223Z,10.10
2023-01-21T21:12:58.858Z,10.50
2023-01-21T21:18:03.396Z,9.23
2023-01-21T21:23:07.560Z,20.10
2023-01-21T21:28:18.202Z,9.10
2023-01-21T21:33:22.202Z,11.67
2023-01-21T21:38:26.147Z,9.40
2023-01-21T21:43:38.875Z,8.60
2023-01-21T21:48:42.577Z,9.13
2023-01-21T21:53:46.305Z,9.97
2023-01-21T21:58:50.321Z,9.20
2023-01-21T22:03:53.408Z,9.43
2023-01-21T22:08:58.785Z,9.50
2023-01-21T22:14:04.723Z,7.73
2023-01-21T22:19:07.224Z,8.13
2023-01-21T22:24:10.708Z,7.47
2023-01-21T22:29:13.245Z,8.03
2023-01-21T22:34:15.705Z,8.97
2023-01-21T22:39:18.206Z,7.60
2023-01-21T22:44:20.905Z,9.17
2023-01-21T22:49:23.345Z,8.50
2023-01-21T22:54:25.817Z,7.60
2023-01-21T22:59:28.216Z,7.80
2023-01-21T23:04:30.639Z,7.23
2023-01-21T23:09:33.252Z,9.80
2023-01-21T23:14:35.905Z,8.67
2023-01-21T23:19:38.714Z,7.53
2023-01-21T23:24:41.191Z,7.27
2023-01-21T23:29:43.710Z,7.00
2023-01-21T23:34:46.268Z,8.03
2023-01-21T23:39:49.025Z,7.10
2023-01-21T23:44:51.839Z,6.80
2023-01-21T23:49:54.536Z,7.63
2023-01-21T23:54:57.159Z,5.93
2023-01-21T23:59:59.604Z,7.17
